Time;durP1;ratioP1;P1;durP2;ratioP2;P2;SDS_P1;SDS_P2;PMS_P1;PMS_P2;Temp;Humidity;BMP_temperature;BMP_pressure;BME280_temperature;BME280_humidity;BME280_pressure;Samples;Min_cycle;Max_cycle;Signal;HPM_P1;HPM_P2
2022/01/17 00:21:42;;;;;;;3.87;1.98;;;;;;;;;;4245872;33;20112;-62
2022/01/17 00:24:09;;;;;;;2.37;1.85;;;;;;;;;;4252361;33;20187;-63
2022/01/17 00:26:35;;;;;;;2.60;1.98;;;;;;;;;;4260490;33;20111;-63
2022/01/17 00:29:01;;;;;;;3.90;1.80;;;;;;;;;;4260410;33;20124;-71
2022/01/17 00:31:27;;;;;;;3.72;2.10;;;;;;;;;;4247045;33;20631;-72
2022/01/17 00:33:53;;;;;;;2.92;2.00;;;;;;;;;;4258971;33;20092;-63
2022/01/17 00:36:19;;;;;;;2.35;2.10;;;;;;;;;;4246902;33;20203;-61
2022/01/17 00:38:46;;;;;;;3.22;2.20;;;;;;;;;;4247121;33;20114;-63
2022/01/17 00:41:12;;;;;;;2.97;1.95;;;;;;;;;;4260453;33;20436;-71
2022/01/17 00:43:38;;;;;;;2.22;2.00;;;;;;;;;;4260469;33;20136;-71
2022/01/17 00:46:04;;;;;;;3.15;2.08;;;;;;;;;;4247315;33;20116;-70
2022/01/17 00:48:30;;;;;;;3.28;2.10;;;;;;;;;;4260287;33;20204;-70
2022/01/17 00:50:56;;;;;;;2.75;1.90;;;;;;;;;;4260542;33;20111;-70
2022/01/17 00:53:22;;;;;;;2.05;1.85;;;;;;;;;;4235284;33;20116;-70
2022/01/17 00:55:48;;;;;;;2.83;2.10;;;;;;;;;;4233284;33;20116;-62
2022/01/17 00:58:14;;;;;;;3.10;2.17;;;;;;;;;;4246177;33;20116;-61
2022/01/17 01:00:41;;;;;;;2.95;2.00;;;;;;;;;;4245664;33;20191;-62
2022/01/17 01:03:07;;;;;;;2.65;2.12;;;;;;;;;;4245949;33;20124;-63
2022/01/17 01:05:34;;;;;;;2.70;2.10;;;;;;;;;;4245596;33;20139;-63
2022/01/17 01:08:00;;;;;;;2.70;1.90;;;;;;;;;;4245976;33;20206;-62
2022/01/17 01:10:26;;;;;;;2.85;1.83;;;;;;;;;;4245766;33;20097;-63
2022/01/17 01:12:53;;;;;;;2.80;1.98;;;;;;;;;;4245681;33;20089;-63
2022/01/17 01:15:33;;;;;;;2.78;1.80;;;;;;;;;;4245375;33;20203;-63
2022/01/17 01:18:01;;;;;;;2.37;1.92;;;;;;;;;;4245549;33;20096;-62
2022/01/17 01:28:23;;;;;;;3.42;2.00;;;;;;;;;;4245816;33;20536;-65
2022/01/17 01:30:52;;;;;;;2.40;1.92;;;;;;;;;;4245589;33;20113;-65
2022/01/17 01:33:55;;;;;;;2.42;2.20;;;;;;;;;;4245735;33;20100;-64
2022/01/17 01:36:17;;;;;;;2.25;1.83;;;;;;;;;;4230572;33;20540;-65
2022/01/17 01:38:43;;;;;;;3.12;2.10;;;;;;;;;;4245801;33;20476;-65
2022/01/17 01:41:09;;;;;;;2.55;1.83;;;;;;;;;;4245432;33;20104;-64
2022/01/17 01:43:35;;;;;;;2.90;2.20;;;;;;;;;;4245717;33;20136;-65
2022/01/17 01:46:02;;;;;;;2.92;2.15;;;;;;;;;;4245252;33;20111;-62
2022/01/17 01:48:30;;;;;;;3.92;1.80;;;;;;;;;;4245342;33;20109;-63
2022/01/17 01:50:57;;;;;;;2.95;1.90;;;;;;;;;;4245476;33;20120;-63
2022/01/17 01:53:23;;;;;;;2.85;1.98;;;;;;;;;;4244544;33;20095;-62
2022/01/17 01:55:55;;;;;;;3.70;2.00;;;;;;;;;;4249492;33;20190;-63
2022/01/17 01:58:22;;;;;;;2.67;2.00;;;;;;;;;;4245653;33;20103;-63
2022/01/17 02:00:49;;;;;;;3.50;2.20;;;;;;;;;;4245076;33;20517;-63
2022/01/17 02:03:15;;;;;;;2.80;2.10;;;;;;;;;;4245527;33;20203;-63
2022/01/17 02:05:43;;;;;;;2.37;1.90;;;;;;;;;;4245396;33;20433;-63
2022/01/17 02:08:10;;;;;;;2.65;2.30;;;;;;;;;;4245378;33;20632;-62
2022/01/17 02:10:36;;;;;;;3.00;2.10;;;;;;;;;;4245240;33;20105;-62
2022/01/17 02:13:02;;;;;;;2.83;2.20;;;;;;;;;;4244965;33;20123;-62
2022/01/17 02:15:28;;;;;;;2.90;2.20;;;;;;;;;;4245027;33;20101;-62
2022/01/17 02:17:56;;;;;;;2.62;1.90;;;;;;;;;;4245247;33;20120;-63
2022/01/17 02:20:35;;;;;;;4.45;2.20;;;;;;;;;;4244862;33;20122;-63
2022/01/17 02:23:04;;;;;;;2.70;1.92;;;;;;;;;;4259151;33;20108;-62
2022/01/17 02:25:31;;;;;;;3.45;2.40;;;;;;;;;;4250522;33;20127;-62
2022/01/17 02:27:57;;;;;;;3.40;2.10;;;;;;;;;;4255632;33;20088;-62
2022/01/17 02:30:25;;;;;;;3.05;2.10;;;;;;;;;;4252015;33;20116;-62
2022/01/17 02:32:52;;;;;;;2.80;2.10;;;;;;;;;;4247375;33;20532;-63
2022/01/17 02:35:20;;;;;;;2.00;1.77;;;;;;;;;;4246761;33;20587;-64
2022/01/17 02:37:46;;;;;;;2.03;1.65;;;;;;;;;;4247024;33;20108;-63
2022/01/17 02:40:36;;;;;;;3.20;1.90;;;;;;;;;;4254697;33;20116;-63
2022/01/17 02:43:24;;;;;;;2.28;1.90;;;;;;;;;;4226521;33;20120;-63
2022/01/17 02:48:18;;;;;;;3.12;2.10;;;;;;;;;;4247819;33;20491;-64
2022/01/17 02:50:44;;;;;;;3.22;2.30;;;;;;;;;;4252235;33;20131;-64
2022/01/17 02:53:12;;;;;;;3.72;2.20;;;;;;;;;;4253281;33;20720;-64
2022/01/17 02:55:59;;;;;;;2.50;1.87;;;;;;;;;;4255255;33;20203;-64
2022/01/17 02:58:27;;;;;;;1.98;1.80;;;;;;;;;;4256111;33;20119;-67
2022/01/17 03:00:57;;;;;;;3.42;2.20;;;;;;;;;;4247680;33;20520;-67
2022/01/17 03:03:25;;;;;;;2.95;2.20;;;;;;;;;;4260408;33;20115;-66
2022/01/17 03:05:52;;;;;;;2.28;2.08;;;;;;;;;;4255138;33;20095;-65
2022/01/17 03:08:20;;;;;;;2.30;1.80;;;;;;;;;;4248045;33;20533;-66
2022/01/17 03:10:50;;;;;;;2.50;1.90;;;;;;;;;;4253372;33;20180;-64
2022/01/17 03:13:25;;;;;;;2.12;1.70;;;;;;;;;;4261090;33;20112;-66
2022/01/17 03:15:57;;;;;;;2.92;2.00;;;;;;;;;;4251041;33;20610;-63
2022/01/17 03:18:24;;;;;;;3.12;2.15;;;;;;;;;;4246973;33;20105;-65
2022/01/17 03:20:51;;;;;;;3.15;1.98;;;;;;;;;;4246608;33;20104;-64
2022/01/17 03:23:17;;;;;;;3.12;2.10;;;;;;;;;;4256627;33;20073;-64
2022/01/17 03:25:43;;;;;;;2.40;2.05;;;;;;;;;;4251652;33;20096;-64
2022/01/17 03:28:10;;;;;;;3.75;2.20;;;;;;;;;;4244720;33;20124;-65
2022/01/17 03:30:36;;;;;;;4.47;2.65;;;;;;;;;;4244639;33;20499;-64
2022/01/17 03:33:10;;;;;;;3.33;2.28;;;;;;;;;;4244724;33;20121;-66
2022/01/17 03:35:38;;;;;;;2.95;2.20;;;;;;;;;;4244719;33;20111;-65
2022/01/17 03:38:09;;;;;;;2.70;2.25;;;;;;;;;;4244706;33;20108;-67
2022/01/17 03:40:36;;;;;;;3.85;2.50;;;;;;;;;;4245334;33;20185;-66
2022/01/17 03:43:03;;;;;;;2.50;2.15;;;;;;;;;;4246809;33;20101;-66
2022/01/17 03:45:29;;;;;;;3.03;2.55;;;;;;;;;;4246741;33;20116;-66
2022/01/17 03:47:56;;;;;;;3.58;2.85;;;;;;;;;;4246767;33;20543;-65
2022/01/17 03:50:23;;;;;;;2.92;2.53;;;;;;;;;;4233091;33;20540;-67
2022/01/17 03:52:50;;;;;;;3.30;2.72;;;;;;;;;;4245721;33;20113;-75
2022/01/17 03:55:19;;;;;;;2.47;2.17;;;;;;;;;;4252520;33;20527;-62
2022/01/17 03:57:45;;;;;;;3.53;2.33;;;;;;;;;;4260647;33;20104;-63
2022/01/17 04:00:25;;;;;;;4.70;2.40;;;;;;;;;;4260486;33;20092;-63
2022/01/17 04:02:52;;;;;;;4.30;2.53;;;;;;;;;;4260499;33;20448;-62
2022/01/17 04:05:19;;;;;;;3.75;2.50;;;;;;;;;;4260236;33;20542;-69
2022/01/17 04:07:45;;;;;;;3.87;2.33;;;;;;;;;;4247594;33;20108;-67
2022/01/17 04:10:12;;;;;;;4.28;2.80;;;;;;;;;;4247415;33;20104;-66
2022/01/17 04:12:39;;;;;;;4.90;2.40;;;;;;;;;;4260649;33;20171;-66
2022/01/17 04:15:06;;;;;;;4.93;2.30;;;;;;;;;;4259686;33;20526;-65
2022/01/17 04:17:33;;;;;;;3.20;2.50;;;;;;;;;;4247302;33;20097;-65
2022/01/17 04:20:09;;;;;;;2.47;2.17;;;;;;;;;;4260108;33;20131;-65
2022/01/17 04:22:40;;;;;;;3.35;2.47;;;;;;;;;;4247307;33;20106;-65
2022/01/17 04:25:07;;;;;;;3.00;2.70;;;;;;;;;;4254966;33;20536;-65
2022/01/17 04:27:34;;;;;;;3.08;2.45;;;;;;;;;;4233226;33;20456;-65
2022/01/17 04:30:00;;;;;;;3.58;2.50;;;;;;;;;;4245841;33;20203;-65
2022/01/17 04:32:26;;;;;;;3.28;2.22;;;;;;;;;;4246453;33;20128;-65
2022/01/17 04:34:52;;;;;;;3.42;2.70;;;;;;;;;;4246000;33;20116;-65
2022/01/17 04:37:18;;;;;;;4.35;2.83;;;;;;;;;;4246338;33;20108;-66
2022/01/17 04:39:45;;;;;;;2.85;2.50;;;;;;;;;;4245621;33;20116;-65
2022/01/17 04:42:12;;;;;;;5.57;2.70;;;;;;;;;;4246376;33;20140;-65
2022/01/17 04:47:30;;;;;;;3.45;2.30;;;;;;;;;;4233043;33;20140;-65
2022/01/17 04:49:57;;;;;;;2.85;2.30;;;;;;;;;;4245790;33;20210;-66
2022/01/17 04:52:24;;;;;;;3.00;2.28;;;;;;;;;;4231477;33;20140;-66
2022/01/17 04:54:55;;;;;;;3.25;2.55;;;;;;;;;;4248472;33;20528;-65
2022/01/17 04:57:21;;;;;;;3.03;2.40;;;;;;;;;;4260225;33;20191;-65
2022/01/17 04:59:48;;;;;;;4.53;3.03;;;;;;;;;;4234607;33;20172;-65
2022/01/17 05:02:15;;;;;;;5.12;2.92;;;;;;;;;;4260359;33;20192;-64
2022/01/17 05:04:44;;;;;;;3.58;2.50;;;;;;;;;;4259571;33;20452;-66
2022/01/17 05:07:10;;;;;;;2.83;2.53;;;;;;;;;;4260153;33;20658;-65
2022/01/17 05:09:38;;;;;;;3.72;2.83;;;;;;;;;;4259640;33;20127;-60
2022/01/17 05:12:05;;;;;;;4.82;2.55;;;;;;;;;;4260049;33;20216;-61
2022/01/17 05:14:31;;;;;;;3.00;2.55;;;;;;;;;;4259907;33;20457;-62
2022/01/17 05:17:04;;;;;;;3.42;2.83;;;;;;;;;;4259719;33;20220;-60
2022/01/17 05:19:49;;;;;;;4.15;2.85;;;;;;;;;;4259389;33;20168;-62
2022/01/17 05:22:16;;;;;;;3.83;2.90;;;;;;;;;;4259837;33;20200;-61
2022/01/17 05:24:43;;;;;;;3.50;2.70;;;;;;;;;;4257327;33;20105;-61
2022/01/17 05:27:09;;;;;;;3.10;2.80;;;;;;;;;;4232647;33;20508;-61
2022/01/17 05:29:35;;;;;;;3.10;2.80;;;;;;;;;;4245141;33;20171;-62
2022/01/17 05:32:02;;;;;;;4.15;2.90;;;;;;;;;;4245459;33;20120;-66
2022/01/17 05:34:28;;;;;;;3.12;2.80;;;;;;;;;;4245365;33;20128;-66
2022/01/17 05:36:54;;;;;;;4.32;3.00;;;;;;;;;;4245740;33;20109;-63
2022/01/17 05:39:20;;;;;;;3.35;3.05;;;;;;;;;;4245041;33;20143;-63
2022/01/17 05:41:46;;;;;;;3.37;2.55;;;;;;;;;;4245345;33;20119;-63
2022/01/17 05:44:13;;;;;;;4.28;3.10;;;;;;;;;;4245420;33;20226;-63
2022/01/17 05:46:39;;;;;;;2.83;2.50;;;;;;;;;;4245354;33;20122;-68
2022/01/17 05:49:05;;;;;;;3.10;2.70;;;;;;;;;;4245176;33;20104;-67
2022/01/17 05:51:31;;;;;;;3.25;2.70;;;;;;;;;;4231928;33;20484;-68
2022/01/17 05:53:57;;;;;;;3.42;2.80;;;;;;;;;;4244166;33;20582;-67
2022/01/17 05:56:23;;;;;;;3.62;2.53;;;;;;;;;;4257047;33;20452;-68
2022/01/17 05:58:49;;;;;;;2.58;2.30;;;;;;;;;;4259460;33;20101;-67
2022/01/17 06:01:15;;;;;;;2.50;2.30;;;;;;;;;;4258744;33;20173;-67
2022/01/17 06:03:41;;;;;;;4.72;3.00;;;;;;;;;;4259319;33;20104;-67
2022/01/17 06:06:08;;;;;;;3.85;2.80;;;;;;;;;;4261186;33;20103;-67
2022/01/17 06:08:34;;;;;;;4.72;2.70;;;;;;;;;;4261606;33;20100;-66
2022/01/17 06:11:00;;;;;;;3.72;2.55;;;;;;;;;;4248022;33;20093;-66
2022/01/17 06:13:26;;;;;;;4.47;4.05;;;;;;;;;;4261341;33;20120;-65
2022/01/17 06:15:53;;;;;;;2.85;2.53;;;;;;;;;;4261380;33;20123;-65
2022/01/17 06:18:19;;;;;;;3.87;2.90;;;;;;;;;;4261404;33;20503;-66
2022/01/17 06:20:45;;;;;;;4.00;2.92;;;;;;;;;;4260839;33;20112;-66
2022/01/17 06:23:11;;;;;;;3.50;2.67;;;;;;;;;;4261097;33;20607;-66
2022/01/17 06:25:37;;;;;;;4.12;2.60;;;;;;;;;;4253399;33;20104;-66
2022/01/17 06:28:04;;;;;;;5.90;2.55;;;;;;;;;;4245185;33;20543;-65
2022/01/17 06:30:30;;;;;;;3.03;2.45;;;;;;;;;;4244738;33;20128;-65
2022/01/17 06:32:56;;;;;;;2.58;2.20;;;;;;;;;;4245268;33;20129;-63
2022/01/17 06:35:23;;;;;;;3.12;2.72;;;;;;;;;;4244761;33;20173;-65
2022/01/17 06:37:49;;;;;;;3.33;2.47;;;;;;;;;;4245922;33;20516;-65
2022/01/17 06:40:15;;;;;;;3.05;2.58;;;;;;;;;;4246704;33;20128;-66
2022/01/17 06:42:42;;;;;;;2.87;2.37;;;;;;;;;;4246980;33;20192;-67
2022/01/17 06:45:09;;;;;;;3.17;2.87;;;;;;;;;;4246691;33;20128;-66
2022/01/17 06:47:36;;;;;;;3.65;2.80;;;;;;;;;;4234371;33;20476;-66
2022/01/17 06:50:04;;;;;;;2.75;2.45;;;;;;;;;;4246824;33;20207;-66
2022/01/17 06:52:31;;;;;;;3.55;2.70;;;;;;;;;;4233092;33;20195;-71
2022/01/17 06:54:57;;;;;;;3.03;2.60;;;;;;;;;;4233422;33;20112;-64
2022/01/17 06:57:24;;;;;;;4.37;2.58;;;;;;;;;;4246968;33;20120;-64
2022/01/17 06:59:51;;;;;;;7.20;3.40;;;;;;;;;;4246723;33;20446;-64
2022/01/17 07:02:17;;;;;;;3.05;2.65;;;;;;;;;;4246940;33;20085;-64
2022/01/17 07:04:43;;;;;;;2.90;2.60;;;;;;;;;;4247002;33;20113;-64
2022/01/17 07:07:09;;;;;;;2.80;2.50;;;;;;;;;;4246786;33;20429;-63
2022/01/17 07:09:36;;;;;;;3.37;2.47;;;;;;;;;;4246932;33;20093;-64
2022/01/17 07:12:06;;;;;;;3.50;2.45;;;;;;;;;;4246363;33;20123;-64
2022/01/17 07:14:32;;;;;;;3.33;2.62;;;;;;;;;;4234016;33;20089;-64
2022/01/17 07:16:58;;;;;;;2.60;2.40;;;;;;;;;;4246279;33;20096;-64
2022/01/17 07:19:25;;;;;;;3.35;2.60;;;;;;;;;;4246523;33;20119;-64
2022/01/17 07:21:51;;;;;;;3.00;2.47;;;;;;;;;;4247620;33;20541;-64
2022/01/17 07:24:18;;;;;;;3.20;2.60;;;;;;;;;;4259350;33;20116;-64
2022/01/17 07:26:44;;;;;;;3.12;2.40;;;;;;;;;;4260970;33;20124;-65
2022/01/17 07:29:10;;;;;;;4.15;2.65;;;;;;;;;;4260707;33;20466;-63
2022/01/17 07:31:37;;;;;;;3.17;2.40;;;;;;;;;;4260104;33;20124;-63
2022/01/17 07:34:03;;;;;;;3.40;3.10;;;;;;;;;;4260653;33;20092;-63
2022/01/17 07:36:29;;;;;;;3.90;3.50;;;;;;;;;;4260669;33;20096;-63
2022/01/17 07:38:56;;;;;;;3.17;2.65;;;;;;;;;;4259965;33;20191;-63
2022/01/17 07:41:23;;;;;;;3.65;2.47;;;;;;;;;;4255387;33;20551;-63
2022/01/17 07:43:50;;;;;;;2.78;2.53;;;;;;;;;;4260543;33;20475;-63
2022/01/17 07:46:25;;;;;;;4.57;2.70;;;;;;;;;;4260256;33;20143;-63
2022/01/17 07:49:09;;;;;;;1.90;1.65;;;;;;;;;;4260655;33;20108;-63
2022/01/17 07:51:35;;;;;;;2.05;1.80;;;;;;;;;;4248939;33;20132;-63
2022/01/17 07:54:03;;;;;;;1.87;1.60;;;;;;;;;;4259640;33;20479;-62
2022/01/17 07:56:31;;;;;;;1.10;1.10;;;;;;;;;;4237632;33;20116;-65
2022/01/17 07:58:57;;;;;;;1.70;1.42;;;;;;;;;;4246436;33;20116;-65
2022/01/17 08:01:23;;;;;;;5.97;1.90;;;;;;;;;;4246098;33;20596;-65
2022/01/17 08:03:49;;;;;;;2.40;1.90;;;;;;;;;;4246293;33;20113;-64
2022/01/17 08:06:15;;;;;;;1.00;1.00;;;;;;;;;;4246182;33;20100;-63
2022/01/17 08:08:41;;;;;;;2.62;2.10;;;;;;;;;;4245879;33;20098;-63
2022/01/17 08:11:07;;;;;;;1.58;1.48;;;;;;;;;;4246110;33;20107;-63
2022/01/17 08:13:33;;;;;;;2.30;2.10;;;;;;;;;;4245934;33;20405;-63
2022/01/17 08:16:02;;;;;;;4.07;2.47;;;;;;;;;;4232924;33;20197;-63
2022/01/17 08:18:28;;;;;;;3.45;2.50;;;;;;;;;;4246160;33;20121;-64
2022/01/17 08:20:54;;;;;;;3.22;2.62;;;;;;;;;;4245629;33;20480;-61
2022/01/17 08:23:20;;;;;;;2.70;2.37;;;;;;;;;;4255876;33;20139;-62
2022/01/17 08:25:46;;;;;;;2.97;2.35;;;;;;;;;;4255211;33;20104;-61
2022/01/17 08:28:13;;;;;;;2.65;2.45;;;;;;;;;;4245131;33;20172;-61
2022/01/17 08:30:40;;;;;;;3.28;2.60;;;;;;;;;;4233228;33;20207;-62
2022/01/17 08:33:06;;;;;;;2.60;2.30;;;;;;;;;;4245432;33;20111;-61
2022/01/17 08:35:32;;;;;;;5.68;2.90;;;;;;;;;;4245845;33;20547;-62
2022/01/17 08:37:58;;;;;;;2.85;2.47;;;;;;;;;;4246161;33;20214;-62
2022/01/17 08:40:24;;;;;;;2.80;2.53;;;;;;;;;;4245712;33;20210;-60
2022/01/17 08:42:51;;;;;;;2.78;2.47;;;;;;;;;;4245910;33;20227;-62
2022/01/17 08:45:18;;;;;;;3.08;2.45;;;;;;;;;;4245233;33;20203;-62
2022/01/17 08:47:49;;;;;;;3.45;2.83;;;;;;;;;;4246327;33;20588;-61
2022/01/17 08:50:16;;;;;;;3.20;2.90;;;;;;;;;;4245509;33;20517;-62
2022/01/17 08:52:44;;;;;;;6.32;4.62;;;;;;;;;;4244869;33;20189;-62
2022/01/17 08:55:10;;;;;;;4.20;3.22;;;;;;;;;;4246735;33;20103;-62
2022/01/17 08:57:36;;;;;;;4.05;3.50;;;;;;;;;;4259752;33;20539;-61
2022/01/17 09:00:09;;;;;;;2.60;2.40;;;;;;;;;;4259651;33;20128;-61
2022/01/17 09:02:35;;;;;;;3.30;2.53;;;;;;;;;;4259762;33;20131;-61
2022/01/17 09:05:01;;;;;;;3.03;2.72;;;;;;;;;;4259547;33;20124;-61
2022/01/17 09:07:27;;;;;;;2.87;2.58;;;;;;;;;;4260053;33;20117;-59
2022/01/17 09:09:54;;;;;;;3.53;2.70;;;;;;;;;;4246251;33;20179;-60
2022/01/17 09:12:20;;;;;;;3.45;2.53;;;;;;;;;;4259559;33;20115;-60
2022/01/17 09:14:46;;;;;;;3.53;2.50;;;;;;;;;;4234805;33;20525;-61
2022/01/17 09:17:13;;;;;;;3.05;2.25;;;;;;;;;;4259426;33;20631;-60
2022/01/17 09:19:41;;;;;;;2.83;2.50;;;;;;;;;;4259761;33;20120;-61
2022/01/17 09:22:07;;;;;;;3.70;3.10;;;;;;;;;;4258933;33;20191;-61
2022/01/17 09:24:35;;;;;;;3.87;2.85;;;;;;;;;;4246400;33;20520;-62
2022/01/17 09:27:02;;;;;;;3.05;2.80;;;;;;;;;;4247580;33;20117;-61
2022/01/17 09:29:28;;;;;;;2.85;2.22;;;;;;;;;;4245233;33;20552;-61
2022/01/17 09:31:54;;;;;;;3.20;2.90;;;;;;;;;;4232605;33;20127;-61
2022/01/17 09:34:20;;;;;;;3.20;2.90;;;;;;;;;;4244935;33;20209;-61
2022/01/17 09:36:47;;;;;;;3.87;2.97;;;;;;;;;;4245489;33;20196;-62
2022/01/17 09:39:14;;;;;;;2.60;2.40;;;;;;;;;;4232594;33;20137;-61
2022/01/17 09:41:40;;;;;;;2.97;2.08;;;;;;;;;;4247604;33;20118;-61
2022/01/17 09:44:07;;;;;;;2.97;2.47;;;;;;;;;;4247314;33;20131;-62
2022/01/17 09:46:39;;;;;;;3.05;2.47;;;;;;;;;;4247055;33;20206;-61
2022/01/17 09:49:24;;;;;;;2.72;2.35;;;;;;;;;;4247476;33;20540;-61
2022/01/17 09:52:37;;;;;;;2.87;2.43;;;;;;;;;;4234382;33;20215;-59
2022/01/17 09:54:39;;;;;;;3.00;2.45;;;;;;;;;;4246049;33;20084;-61
2022/01/17 09:57:07;;;;;;;2.50;2.30;;;;;;;;;;4234372;33;20116;-61
2022/01/17 09:59:34;;;;;;;2.72;2.42;;;;;;;;;;4234186;33;20112;-61
2022/01/17 10:02:00;;;;;;;2.95;2.20;;;;;;;;;;4247556;33;20271;-61
2022/01/17 10:04:27;;;;;;;3.75;2.50;;;;;;;;;;4233790;33;20128;-61
2022/01/17 10:06:54;;;;;;;2.35;2.15;;;;;;;;;;4234615;33;20517;-61
2022/01/17 10:09:24;;;;;;;3.87;2.97;;;;;;;;;;4243280;33;20156;-62
2022/01/17 10:12:15;;;;;;;2.67;2.42;;;;;;;;;;4259723;33;20116;-61
2022/01/17 10:15:00;;;;;;;3.12;2.62;;;;;;;;;;4259149;33;20232;-61
2022/01/17 10:17:58;;;;;;;3.15;2.60;;;;;;;;;;4260683;33;20127;-60
2022/01/17 10:20:26;;;;;;;3.65;2.90;;;;;;;;;;4227631;33;20207;-60
2022/01/17 10:23:17;;;;;;;3.47;2.45;;;;;;;;;;4259861;33;20119;-60
2022/01/17 10:26:03;;;;;;;3.85;3.10;;;;;;;;;;4252509;33;20167;-61
2022/01/17 10:31:33;;;;;;;3.78;2.83;;;;;;;;;;4247150;33;20116;-61
2022/01/17 10:36:58;;;;;;;3.55;2.87;;;;;;;;;;4247101;33;19980;-61
2022/01/17 10:39:24;;;;;;;3.87;3.00;;;;;;;;;;4249100;33;20125;-61
2022/01/17 10:41:50;;;;;;;4.37;3.12;;;;;;;;;;4260756;33;20135;-62
2022/01/17 10:44:33;;;;;;;5.15;2.92;;;;;;;;;;4261098;33;20128;-61
2022/01/17 10:47:29;;;;;;;4.37;3.47;;;;;;;;;;4261028;33;20202;-61
2022/01/17 10:50:00;;;;;;;4.25;2.95;;;;;;;;;;4248531;33;20131;-61
2022/01/17 10:52:44;;;;;;;4.55;3.12;;;;;;;;;;4259195;33;20117;-61
2022/01/17 10:55:24;;;;;;;3.53;3.03;;;;;;;;;;4259791;33;20112;-62
2022/01/17 10:57:55;;;;;;;3.83;3.17;;;;;;;;;;4260400;33;20117;-61
2022/01/17 11:00:23;;;;;;;4.00;3.10;;;;;;;;;;4259018;33;20116;-61
2022/01/17 11:02:52;;;;;;;3.95;3.20;;;;;;;;;;4261254;33;20104;-64
2022/01/17 11:05:21;;;;;;;4.25;3.20;;;;;;;;;;4260549;33;20167;-63
2022/01/17 11:07:49;;;;;;;4.87;3.62;;;;;;;;;;4261012;33;20115;-66
2022/01/17 11:10:21;;;;;;;4.72;3.62;;;;;;;;;;4253608;33;20497;-66
2022/01/17 11:12:49;;;;;;;5.72;3.30;;;;;;;;;;4234036;33;20117;-66
2022/01/17 11:15:15;;;;;;;5.43;4.10;;;;;;;;;;4246592;33;20132;-65
2022/01/17 11:17:49;;;;;;;4.00;2.85;;;;;;;;;;4234189;33;20100;-66
2022/01/17 11:20:15;;;;;;;6.53;4.82;;;;;;;;;;4253439;33;20111;-65
2022/01/17 11:22:44;;;;;;;5.70;3.45;;;;;;;;;;4260734;33;20104;-66
2022/01/17 11:25:33;;;;;;;4.15;3.50;;;;;;;;;;4254331;33;20092;-66
2022/01/17 11:28:00;;;;;;;4.37;3.33;;;;;;;;;;4246836;33;20115;-65
2022/01/17 11:30:26;;;;;;;5.22;3.78;;;;;;;;;;4246500;33;20128;-65
2022/01/17 11:32:55;;;;;;;4.70;3.50;;;;;;;;;;4246653;33;20524;-64
2022/01/17 11:35:22;;;;;;;5.82;4.07;;;;;;;;;;4246165;33;20583;-65
2022/01/17 11:37:58;;;;;;;5.62;3.45;;;;;;;;;;4246704;33;20514;-64
2022/01/17 11:40:30;;;;;;;4.70;3.42;;;;;;;;;;4241162;33;20105;-63
2022/01/17 11:43:19;;;;;;;5.57;3.58;;;;;;;;;;4253330;33;20121;-63
2022/01/17 11:45:46;;;;;;;6.68;4.40;;;;;;;;;;4246241;33;20113;-65
2022/01/17 11:48:32;;;;;;;4.80;3.85;;;;;;;;;;4246228;33;20184;-64
2022/01/17 11:51:18;;;;;;;6.35;4.70;;;;;;;;;;4246557;33;20120;-64
2022/01/17 11:53:46;;;;;;;6.07;4.22;;;;;;;;;;4232423;33;20188;-64
2022/01/17 11:56:38;;;;;;;5.78;4.68;;;;;;;;;;4257211;33;20132;-63
2022/01/17 11:59:27;;;;;;;7.07;4.60;;;;;;;;;;4255261;33;20220;-65
2022/01/17 12:02:13;;;;;;;7.35;5.07;;;;;;;;;;4246267;33;20117;-64
2022/01/17 12:04:39;;;;;;;6.90;5.20;;;;;;;;;;4246209;33;20941;-64
2022/01/17 12:07:05;;;;;;;6.00;4.25;;;;;;;;;;4246572;33;20272;-64
2022/01/17 12:09:32;;;;;;;7.40;4.97;;;;;;;;;;4250007;33;20159;-64
2022/01/17 12:12:07;;;;;;;7.00;4.78;;;;;;;;;;4246293;33;20125;-64
2022/01/17 12:14:35;;;;;;;7.15;5.50;;;;;;;;;;4246343;33;20185;-63
2022/01/17 12:17:19;;;;;;;6.70;4.90;;;;;;;;;;4233535;33;20084;-64
2022/01/17 12:20:04;;;;;;;5.62;4.32;;;;;;;;;;4246296;33;20108;-64
2022/01/17 12:22:57;;;;;;;5.68;4.22;;;;;;;;;;4246522;33;20501;-63
2022/01/17 12:25:25;;;;;;;7.47;4.35;;;;;;;;;;4246305;33;20100;-63
2022/01/17 12:28:16;;;;;;;5.62;4.12;;;;;;;;;;4246118;33;20537;-63
2022/01/17 12:30:42;;;;;;;6.18;4.75;;;;;;;;;;4244751;33;20561;-64
2022/01/17 12:33:13;;;;;;;6.47;4.53;;;;;;;;;;4246082;33;20188;-64
2022/01/17 12:35:45;;;;;;;5.93;4.75;;;;;;;;;;4245726;33;20135;-63
2022/01/17 12:38:15;;;;;;;6.43;5.00;;;;;;;;;;4246352;33;20553;-62
2022/01/17 12:40:43;;;;;;;5.62;4.80;;;;;;;;;;4232772;33;20099;-63
2022/01/17 12:43:13;;;;;;;6.82;5.22;;;;;;;;;;4233263;33;20089;-63
2022/01/17 12:45:48;;;;;;;6.45;5.03;;;;;;;;;;4246144;33;20097;-64
2022/01/17 12:48:15;;;;;;;7.25;5.78;;;;;;;;;;4245789;33;20105;-65
2022/01/17 12:50:43;;;;;;;7.55;6.43;;;;;;;;;;4245609;33;20105;-65
2022/01/17 12:53:11;;;;;;;7.60;5.72;;;;;;;;;;4244665;33;20109;-66
2022/01/17 12:55:43;;;;;;;7.93;6.05;;;;;;;;;;4258154;33;20524;-67
2022/01/17 12:58:22;;;;;;;8.52;6.28;;;;;;;;;;4259865;33;20186;-67
2022/01/17 13:00:53;;;;;;;8.05;6.40;;;;;;;;;;4259408;33;20187;-66
2022/01/17 13:03:23;;;;;;;7.78;6.45;;;;;;;;;;4260073;33;20454;-64
2022/01/17 13:05:50;;;;;;;7.97;7.07;;;;;;;;;;4259869;33;20091;-66
2022/01/17 13:08:17;;;;;;;8.82;7.15;;;;;;;;;;4259787;33;20496;-66
2022/01/17 13:10:43;;;;;;;10.50;7.93;;;;;;;;;;4247016;33;20093;-66
2022/01/17 13:13:15;;;;;;;12.60;8.50;;;;;;;;;;4245532;33;20116;-66
2022/01/17 13:15:59;;;;;;;10.55;9.48;;;;;;;;;;4232918;33;20103;-66
2022/01/17 13:18:26;;;;;;;11.30;10.18;;;;;;;;;;4245635;33;20116;-66
2022/01/17 13:20:52;;;;;;;10.75;9.65;;;;;;;;;;4245482;33;20190;-67
2022/01/17 13:23:26;;;;;;;11.75;10.55;;;;;;;;;;4245956;33;20093;-66
2022/01/17 13:25:53;;;;;;;14.20;10.23;;;;;;;;;;4244177;33;20525;-66
2022/01/17 13:28:20;;;;;;;13.55;12.15;;;;;;;;;;4245681;33;20120;-65
2022/01/17 13:30:46;;;;;;;12.40;11.00;;;;;;;;;;4245689;33;20146;-67
2022/01/17 13:33:12;;;;;;;13.80;12.50;;;;;;;;;;4245608;33;20132;-65
2022/01/17 13:35:43;;;;;;;15.38;13.80;;;;;;;;;;4232385;33;20116;-67
2022/01/17 13:38:11;;;;;;;12.48;11.20;;;;;;;;;;4245317;33;20524;-65
2022/01/17 13:40:39;;;;;;;13.30;11.45;;;;;;;;;;4232428;33;20210;-67
2022/01/17 13:43:06;;;;;;;13.90;12.18;;;;;;;;;;4245530;33;20183;-62
2022/01/17 13:45:33;;;;;;;13.40;10.93;;;;;;;;;;4245410;33;20117;-62
2022/01/17 13:48:02;;;;;;;12.00;10.73;;;;;;;;;;4245385;33;20255;-62
2022/01/17 13:50:28;;;;;;;12.82;10.85;;;;;;;;;;4232004;33;20132;-61
2022/01/17 13:52:54;;;;;;;13.05;11.10;;;;;;;;;;4244266;33;20113;-61
2022/01/17 13:55:41;;;;;;;13.32;11.95;;;;;;;;;;4255921;33;20537;-62
2022/01/17 13:58:12;;;;;;;11.12;9.93;;;;;;;;;;4259453;33;20476;-63
2022/01/17 14:00:47;;;;;;;13.57;9.60;;;;;;;;;;4258939;33;20120;-63
2022/01/17 14:03:19;;;;;;;11.23;10.00;;;;;;;;;;4259502;33;20264;-63
2022/01/17 14:05:47;;;;;;;11.23;9.95;;;;;;;;;;4235344;33;20224;-65
2022/01/17 14:08:17;;;;;;;10.63;9.15;;;;;;;;;;4258918;33;20127;-64
2022/01/17 14:11:04;;;;;;;10.20;9.18;;;;;;;;;;4246364;33;20112;-64
2022/01/17 14:13:36;;;;;;;9.23;8.32;;;;;;;;;;4244956;33;20109;-64
2022/01/17 14:16:22;;;;;;;10.07;8.48;;;;;;;;;;4245382;33;20670;-65
2022/01/17 14:18:56;;;;;;;10.13;8.65;;;;;;;;;;4246431;33;20089;-64
2022/01/17 14:21:30;;;;;;;9.27;8.07;;;;;;;;;;4259315;33;20109;-64
2022/01/17 14:24:22;;;;;;;10.65;8.50;;;;;;;;;;4259393;33;20468;-64
2022/01/17 14:26:57;;;;;;;8.77;7.82;;;;;;;;;;4261203;33;20203;-64
2022/01/17 14:29:27;;;;;;;9.43;8.40;;;;;;;;;;4261212;33;20120;-64
2022/01/17 14:31:54;;;;;;;8.63;7.37;;;;;;;;;;4261636;33;20111;-64
2022/01/17 14:34:22;;;;;;;8.40;7.47;;;;;;;;;;4261209;33;20116;-63
2022/01/17 14:36:59;;;;;;;10.35;7.30;;;;;;;;;;4261398;33;20108;-63
2022/01/17 14:39:30;;;;;;;9.20;7.57;;;;;;;;;;4261074;33;20769;-64
2022/01/17 14:42:03;;;;;;;8.32;6.75;;;;;;;;;;4261349;33;20218;-65
2022/01/17 14:44:31;;;;;;;8.93;7.95;;;;;;;;;;4261335;33;20116;-64
2022/01/17 14:47:01;;;;;;;7.85;6.43;;;;;;;;;;4261913;33;20132;-63
2022/01/17 14:49:30;;;;;;;8.15;6.55;;;;;;;;;;4261318;33;20131;-62
2022/01/17 14:52:00;;;;;;;7.32;6.20;;;;;;;;;;4258230;33;20120;-64
2022/01/17 14:54:31;;;;;;;7.40;6.03;;;;;;;;;;4251928;33;20108;-64
2022/01/17 14:59:51;;;;;;;8.73;6.25;;;;;;;;;;4260892;33;20107;-63
2022/01/17 15:02:29;;;;;;;8.55;6.00;;;;;;;;;;4260954;33;20124;-63
2022/01/17 15:04:55;;;;;;;8.43;6.78;;;;;;;;;;4261008;33;20509;-62
2022/01/17 15:07:21;;;;;;;9.15;6.57;;;;;;;;;;4261253;33;20183;-64
2022/01/17 15:09:50;;;;;;;7.00;6.28;;;;;;;;;;4253323;33;20117;-65
2022/01/17 15:12:17;;;;;;;7.35;5.65;;;;;;;;;;4247222;33;20211;-65
2022/01/17 15:14:44;;;;;;;7.47;5.97;;;;;;;;;;4251158;33;20516;-66
2022/01/17 15:17:32;;;;;;;7.45;6.15;;;;;;;;;;4259481;33;20116;-65
2022/01/17 15:19:58;;;;;;;8.23;6.50;;;;;;;;;;4252222;33;20464;-65
2022/01/17 15:22:25;;;;;;;7.28;5.65;;;;;;;;;;4247645;33;20594;-65
2022/01/17 15:24:51;;;;;;;7.03;5.68;;;;;;;;;;4255383;33;20206;-64
2022/01/17 15:27:17;;;;;;;6.65;5.90;;;;;;;;;;4260075;33;20120;-64
2022/01/17 15:29:44;;;;;;;7.47;5.87;;;;;;;;;;4258545;33;20191;-64
2022/01/17 15:32:11;;;;;;;8.20;6.05;;;;;;;;;;4260814;33;20215;-65
2022/01/17 15:34:39;;;;;;;6.97;5.97;;;;;;;;;;4261204;33;20119;-64
2022/01/17 15:37:06;;;;;;;5.72;5.05;;;;;;;;;;4260467;33;20191;-65